Time;durP1;ratioP1;P1;durP2;ratioP2;P2;SDS_P1;SDS_P2;PMS_P1;PMS_P2;Temp;Humidity;BMP_temperature;BMP_pressure;BME280_temperature;BME280_humidity;BME280_pressure;Samples;Min_cycle;Max_cycle;Signal;HPM_P1;HPM_P2
2023/01/26 00:18:04;;;;;;;12.95;4.10;;;0.60;99.90;;;;;;6328267;22;20071;-93
2023/01/26 00:52:28;;;;;;;13.52;4.53;;;0.70;99.90;;;;;;6325781;22;20025;-95
2023/01/26 00:54:55;;;;;;;11.07;4.15;;;0.70;99.90;;;;;;6303995;22;20026;-95
2023/01/26 00:57:21;;;;;;;;;;;0.70;99.90;;;;;;6286840;22;20024;-95
2023/01/26 00:59:46;;;;;;;12.02;4.28;;;0.70;99.90;;;;;;6311479;22;19898;-96
2023/01/26 01:02:12;;;;;;;11.02;3.78;;;0.70;99.90;;;;;;6307683;22;20018;-95
2023/01/26 01:04:38;;;;;;;11.35;4.15;;;0.70;99.90;;;;;;6309545;22;20018;-93
2023/01/26 01:07:03;;;;;;;12.07;4.10;;;0.80;99.90;;;;;;6309261;22;20003;-92
2023/01/26 01:09:29;;;;;;;12.63;4.07;;;0.60;99.90;;;;;;6309902;22;20021;-96
2023/01/26 01:11:55;;;;;;;11.45;4.47;;;0.70;99.90;;;;;;6277493;22;20002;-96
2023/01/26 01:14:21;;;;;;;13.35;4.43;;;0.70;99.90;;;;;;6278306;22;20011;-95
2023/01/26 01:16:46;;;;;;;14.95;4.80;;;0.60;99.90;;;;;;6295977;22;20018;-96
2023/01/26 01:19:15;;;;;;;10.98;4.25;;;0.60;99.90;;;;;;6294910;22;20015;-95
2023/01/26 01:21:41;;;;;;;11.95;4.30;;;0.60;99.90;;;;;;6291640;22;20014;-96
2023/01/26 01:24:07;;;;;;;14.25;5.47;;;0.70;99.90;;;;;;6293238;22;20065;-94
2023/01/26 01:26:33;;;;;;;11.10;4.72;;;0.70;99.90;;;;;;6289089;22;20010;-94
2023/01/26 01:28:58;;;;;;;10.05;3.35;;;0.70;99.90;;;;;;6289216;22;20050;-96
2023/01/26 01:31:25;;;;;;;12.13;4.78;;;0.70;99.90;;;;;;6264067;22;20119;-96
2023/01/26 01:33:52;;;;;;;11.30;4.22;;;0.70;99.90;;;;;;6288663;22;20023;-96
2023/01/26 01:36:18;;;;;;;14.10;4.65;;;0.70;99.90;;;;;;6288784;22;20080;-95
2023/01/26 01:38:45;;;;;;;15.50;4.03;;;0.80;99.90;;;;;;6288079;22;20011;-96
2023/01/26 01:41:27;;;;;;;10.52;4.38;;;0.70;99.90;;;;;;6289328;22;20069;-96
2023/01/26 01:44:12;;;;;;;12.20;4.53;;;0.80;99.90;;;;;;6287810;22;20046;-96
2023/01/26 01:46:41;;;;;;;11.23;4.25;;;0.80;99.90;;;;;;6287817;22;20015;-91
2023/01/26 01:49:16;;;;;;;9.85;3.80;;;0.80;99.90;;;;;;6262854;22;20344;-95
2023/01/26 01:52:09;;;;;;;10.82;4.43;;;0.80;99.90;;;;;;6287800;22;20015;-96
2023/01/26 01:54:47;;;;;;;12.88;4.03;;;0.80;99.90;;;;;;6257457;22;20030;-96
2023/01/26 01:57:26;;;;;;;9.25;4.10;;;0.80;99.90;;;;;;6257214;22;20047;-96
2023/01/26 02:00:09;;;;;;;12.52;4.55;;;0.80;99.90;;;;;;6256968;22;20016;-95
2023/01/26 02:02:36;;;;;;;11.15;3.75;;;0.80;99.90;;;;;;6257256;22;20012;-92
2023/01/26 02:05:09;;;;;;;12.88;4.28;;;0.80;99.90;;;;;;6256976;22;20019;-94
2023/01/26 02:08:33;;;;;;;;;;;;;;;;;;;;;
2023/01/26 02:11:15;;;;;;;10.05;3.72;;;0.80;99.90;;;;;;6310411;22;20011;-96
2023/01/26 02:13:43;;;;;;;9.55;3.10;;;0.80;99.90;;;;;;6258604;22;20023;-96
2023/01/26 02:16:09;;;;;;;16.38;4.15;;;0.90;99.90;;;;;;6257276;22;20011;-96
2023/01/26 02:18:35;;;;;;;12.90;4.40;;;0.80;99.90;;;;;;6257508;22;20019;-93
2023/01/26 02:21:05;;;;;;;10.90;3.03;;;0.90;99.90;;;;;;6257300;22;20011;-96
2023/01/26 02:23:39;;;;;;;10.52;3.55;;;0.90;99.90;;;;;;6257210;22;20023;-92
2023/01/26 02:26:06;;;;;;;10.85;4.07;;;0.90;99.90;;;;;;6257149;22;20015;-96
2023/01/26 02:28:32;;;;;;;12.10;3.67;;;0.90;99.90;;;;;;6256987;22;20011;-96
2023/01/26 02:30:58;;;;;;;8.90;3.28;;;0.90;99.90;;;;;;6257007;22;20042;-96
2023/01/26 02:33:26;;;;;;;10.32;3.70;;;0.90;99.90;;;;;;6256975;22;20022;-96
2023/01/26 02:35:52;;;;;;;9.45;3.42;;;0.90;99.90;;;;;;6257625;22;20011;-96
2023/01/26 02:38:20;;;;;;;12.15;3.70;;;0.90;99.90;;;;;;6262210;22;20015;-96
2023/01/26 02:40:54;;;;;;;8.43;3.10;;;1.00;99.90;;;;;;6264627;22;20011;-95
2023/01/26 02:43:23;;;;;;;10.00;3.42;;;1.00;99.90;;;;;;6258314;22;20086;-96
2023/01/26 02:45:49;;;;;;;10.77;3.83;;;1.00;99.90;;;;;;6258131;22;20015;-95
2023/01/26 02:49:45;;;;;;;9.63;3.88;;;1.00;99.90;;;;;;6266260;22;20022;-93
2023/01/26 02:51:00;;;;;;;8.57;3.03;;;1.00;99.90;;;;;;6272118;22;20019;-95
2023/01/26 02:53:26;;;;;;;11.45;3.80;;;1.00;99.90;;;;;;6281538;22;20066;-95
2023/01/26 02:55:51;;;;;;;8.77;3.25;;;1.00;99.90;;;;;;6294338;22;20022;-92
2023/01/26 02:58:17;;;;;;;10.07;3.17;;;1.00;99.90;;;;;;6270612;22;20015;-96
2023/01/26 03:00:43;;;;;;;11.50;3.35;;;1.00;99.90;;;;;;6268209;22;20038;-96
2023/01/26 03:03:25;;;;;;;9.77;3.57;;;1.00;99.90;;;;;;6272438;22;20022;-96
2023/01/26 03:06:24;;;;;;;9.48;3.20;;;1.00;99.90;;;;;;6264494;22;20077;-93
2023/01/26 09:44:33;;;;;;;5.80;0.88;;;4.20;99.90;;;;;;6309850;22;20039;-96
2023/01/26 09:47:31;;;;;;;5.05;0.77;;;4.40;99.90;;;;;;6263521;22;20019;-95
2023/01/26 09:50:07;;;;;;;2.67;0.93;;;4.50;99.90;;;;;;6192820;22;20064;-94
2023/01/26 09:52:46;;;;;;;5.22;0.57;;;4.60;99.90;;;;;;6260625;22;20019;-96
2023/01/26 10:10:57;;;;;;;3.22;0.43;;;5.30;99.90;;;;;;6311241;22;20352;-95
2023/01/26 10:13:23;;;;;;;6.28;0.95;;;5.40;99.90;;;;;;6284529;22;20476;-95
2023/01/26 10:15:57;;;;;;;4.38;1.33;;;5.50;99.90;;;;;;6284976;22;20015;-96
2023/01/26 10:18:29;;;;;;;7.63;0.70;;;5.50;99.90;;;;;;6286605;22;20097;-94
2023/01/26 10:20:57;;;;;;;2.80;0.80;;;5.50;99.90;;;;;;6285780;22;20391;-96
2023/01/26 10:37:28;;;;;;;3.05;0.50;;;5.90;99.90;;;;;;6321558;22;20023;-95
2023/01/26 10:42:45;;;;;;;2.63;0.55;;;6.00;99.90;;;;;;6332010;22;20023;-89
2023/01/26 10:45:32;;;;;;;3.10;0.70;;;6.10;99.90;;;;;;6280069;22;20026;-89
2023/01/26 10:48:36;;;;;;;2.87;0.70;;;6.20;99.90;;;;;;6280025;22;20015;-91
2023/01/26 10:51:28;;;;;;;4.40;0.68;;;6.30;99.90;;;;;;6255545;22;20313;-91
